Time;durP1;ratioP1;P1;durP2;ratioP2;P2;SDS_P1;SDS_P2;PMS_P1;PMS_P2;Temp;Humidity;BMP_temperature;BMP_pressure;BME280_temperature;BME280_humidity;BME280_pressure;Samples;Min_cycle;Max_cycle;Signal;HPM_P1;HPM_P2
2021/10/15 00:01:43;;;;;;;7.45;4.90;;;13.30;93.60;;;;;;4996310;28;20346;-63
2021/10/15 00:04:08;;;;;;;6.47;4.60;;;13.30;93.70;;;;;;5004424;28;20060;-63
2021/10/15 00:06:34;;;;;;;7.78;5.03;;;13.30;93.70;;;;;;5013701;28;20017;-63
2021/10/15 00:08:59;;;;;;;6.50;4.68;;;13.30;93.70;;;;;;5009068;28;20466;-63
2021/10/15 00:11:25;;;;;;;7.25;5.10;;;13.20;93.70;;;;;;4999878;28;20183;-64
2021/10/15 00:13:50;;;;;;;6.95;4.57;;;13.20;93.70;;;;;;5013914;28;20531;-63
2021/10/15 00:16:16;;;;;;;8.20;5.47;;;13.20;93.70;;;;;;5007381;28;20528;-63
2021/10/15 00:18:42;;;;;;;8.80;6.07;;;13.20;93.80;;;;;;4995974;28;20030;-63
2021/10/15 00:21:08;;;;;;;8.82;5.00;;;13.20;93.80;;;;;;4996728;28;20393;-63
2021/10/15 00:23:33;;;;;;;6.90;5.07;;;13.10;94.00;;;;;;4996204;28;20022;-63
2021/10/15 00:25:59;;;;;;;9.63;5.80;;;13.10;94.10;;;;;;4990820;28;20085;-63
2021/10/15 00:28:24;;;;;;;8.70;6.03;;;13.10;94.10;;;;;;4997257;28;20037;-63
2021/10/15 00:30:50;;;;;;;6.38;5.10;;;13.00;94.20;;;;;;4996432;28;20537;-63
2021/10/15 00:33:15;;;;;;;9.73;5.32;;;13.00;94.30;;;;;;5000035;28;20022;-63
2021/10/15 00:35:41;;;;;;;8.50;5.53;;;13.00;94.40;;;;;;4997447;28;20027;-63
2021/10/15 00:38:06;;;;;;;7.05;4.90;;;13.00;94.50;;;;;;4998130;28;20109;-63
2021/10/15 00:40:32;;;;;;;8.98;5.53;;;13.00;94.60;;;;;;5000135;28;20105;-63
2021/10/15 00:42:57;;;;;;;7.03;5.45;;;13.00;94.60;;;;;;4996712;28;20370;-63
2021/10/15 00:45:23;;;;;;;9.15;5.68;;;13.00;94.70;;;;;;4996129;28;20470;-63
2021/10/15 00:47:48;;;;;;;7.47;4.85;;;13.00;94.70;;;;;;4998649;28;20030;-64
2021/10/15 00:50:14;;;;;;;7.68;5.28;;;13.00;94.70;;;;;;4995110;28;20022;-63
2021/10/15 00:52:40;;;;;;;7.78;5.20;;;13.00;94.80;;;;;;4994062;28;20044;-63
2021/10/15 00:55:06;;;;;;;8.02;5.43;;;13.00;94.80;;;;;;4977637;28;20021;-63
2021/10/15 00:57:32;;;;;;;7.25;5.30;;;13.00;94.80;;;;;;4997271;28;20104;-63
2021/10/15 00:59:57;;;;;;;8.02;5.57;;;13.00;94.90;;;;;;4996837;28;20458;-63
2021/10/15 01:02:23;;;;;;;7.50;5.20;;;13.00;94.90;;;;;;4995813;28;20534;-63
2021/10/15 01:04:49;;;;;;;11.10;5.60;;;13.00;95.00;;;;;;4998907;28;20026;-63
2021/10/15 01:07:15;;;;;;;7.63;5.28;;;13.00;95.00;;;;;;4992767;28;20363;-63
2021/10/15 01:09:41;;;;;;;7.68;5.20;;;13.00;95.00;;;;;;4994240;28;20471;-63
2021/10/15 01:12:07;;;;;;;7.80;5.40;;;13.00;95.00;;;;;;4994779;28;20025;-63
2021/10/15 01:14:33;;;;;;;6.88;4.75;;;13.00;95.00;;;;;;4994503;28;20307;-63
2021/10/15 01:17:06;;;;;;;8.25;5.30;;;13.00;95.00;;;;;;4999754;28;20014;-63
2021/10/15 01:19:32;;;;;;;7.80;5.38;;;13.00;95.10;;;;;;4996498;28;20026;-63
2021/10/15 01:22:06;;;;;;;7.75;5.55;;;13.00;95.20;;;;;;5000814;28;20019;-63
2021/10/15 01:24:33;;;;;;;7.45;5.63;;;13.00;95.30;;;;;;4999338;28;20371;-63
2021/10/15 01:27:09;;;;;;;9.73;5.40;;;13.00;95.30;;;;;;4993637;28;20033;-63
2021/10/15 01:29:36;;;;;;;6.78;5.45;;;13.00;95.30;;;;;;4997556;28;20021;-63
2021/10/15 01:32:03;;;;;;;9.32;5.97;;;13.00;95.40;;;;;;4997558;28;20022;-63
2021/10/15 01:34:29;;;;;;;7.75;5.38;;;13.00;95.40;;;;;;4993433;28;20038;-63
2021/10/15 01:36:55;;;;;;;7.45;5.30;;;13.00;95.40;;;;;;4994798;28;20390;-63
2021/10/15 01:39:20;;;;;;;7.35;5.95;;;13.00;95.40;;;;;;4995809;28;20045;-63
2021/10/15 01:41:46;;;;;;;9.40;5.47;;;13.00;95.50;;;;;;4994781;28;20018;-63
2021/10/15 01:44:11;;;;;;;10.82;5.50;;;13.00;95.60;;;;;;4998874;28;20363;-63
2021/10/15 01:46:37;;;;;;;7.65;5.45;;;13.00;95.60;;;;;;4997343;28;20026;-63
2021/10/15 01:49:03;;;;;;;9.13;5.57;;;13.00;95.70;;;;;;4992815;28;20042;-63
2021/10/15 01:51:28;;;;;;;8.80;5.68;;;12.90;95.70;;;;;;4992981;28;20600;-63
2021/10/15 01:53:54;;;;;;;10.13;6.10;;;12.90;95.70;;;;;;4997080;28;20019;-63
2021/10/15 01:56:19;;;;;;;9.23;5.95;;;12.90;95.80;;;;;;4998094;28;20026;-63
2021/10/15 01:58:45;;;;;;;7.05;5.65;;;12.90;95.80;;;;;;4999552;28;20459;-63
2021/10/15 02:01:10;;;;;;;9.25;5.68;;;12.90;95.90;;;;;;4996662;28;20386;-63
2021/10/15 02:03:36;;;;;;;7.30;5.43;;;12.90;95.90;;;;;;4999817;28;20026;-64
2021/10/15 02:06:02;;;;;;;8.65;5.53;;;12.90;95.90;;;;;;4994863;28;20029;-63
2021/10/15 02:08:27;;;;;;;10.13;6.43;;;12.90;96.00;;;;;;4993716;28;20076;-63
2021/10/15 02:10:53;;;;;;;9.25;5.80;;;12.90;96.00;;;;;;4994250;28;20109;-63
2021/10/15 02:13:18;;;;;;;8.93;5.47;;;12.90;96.10;;;;;;4992154;28;20415;-63
2021/10/15 02:15:44;;;;;;;9.38;6.30;;;12.80;96.00;;;;;;4995008;28;20146;-63
2021/10/15 02:18:09;;;;;;;9.00;5.88;;;12.80;96.10;;;;;;4993013;28;20109;-63
2021/10/15 02:20:35;;;;;;;8.05;5.57;;;12.80;96.10;;;;;;4997948;28;20022;-63
2021/10/15 02:23:01;;;;;;;9.05;6.10;;;12.80;96.20;;;;;;4994096;28;20018;-63
2021/10/15 02:25:28;;;;;;;9.85;5.93;;;12.80;96.20;;;;;;4996755;28;20030;-63
2021/10/15 02:27:53;;;;;;;9.73;5.57;;;12.80;96.30;;;;;;5000532;28;20022;-63
2021/10/15 02:30:20;;;;;;;10.00;5.97;;;12.80;96.30;;;;;;4996246;28;20028;-63
2021/10/15 02:32:46;;;;;;;9.88;6.88;;;12.80;96.40;;;;;;4997158;28;20018;-63
2021/10/15 02:35:12;;;;;;;8.32;6.85;;;12.80;96.50;;;;;;4991812;28;20458;-63
2021/10/15 02:37:38;;;;;;;7.80;6.00;;;12.80;96.50;;;;;;4991599;28;20041;-63
2021/10/15 02:40:12;;;;;;;12.23;6.75;;;12.70;96.50;;;;;;4978939;28;20046;-63
2021/10/15 02:42:38;;;;;;;8.13;5.68;;;12.80;96.50;;;;;;4997139;28;20049;-63
2021/10/15 02:45:05;;;;;;;8.15;5.88;;;12.70;96.60;;;;;;4994606;28;20050;-63
2021/10/15 02:47:30;;;;;;;9.10;5.90;;;12.70;96.70;;;;;;4993146;28;20449;-63
2021/10/15 02:49:56;;;;;;;9.38;6.20;;;12.70;96.70;;;;;;4999529;28;20526;-63
2021/10/15 02:52:21;;;;;;;9.70;6.47;;;12.70;96.70;;;;;;4995510;28;20037;-63
2021/10/15 02:54:47;;;;;;;10.15;6.28;;;12.70;96.70;;;;;;4995854;28;20100;-63
2021/10/15 02:57:12;;;;;;;10.52;6.80;;;12.70;96.70;;;;;;4993323;28;20045;-63
2021/10/15 02:59:38;;;;;;;11.55;7.30;;;12.70;96.80;;;;;;4999121;28;20499;-63
2021/10/15 03:02:04;;;;;;;9.85;7.13;;;12.70;96.80;;;;;;4997921;28;20533;-63
2021/10/15 03:04:29;;;;;;;11.20;7.15;;;12.60;96.80;;;;;;4995685;28;20521;-63
2021/10/15 03:06:55;;;;;;;10.18;6.80;;;12.60;96.90;;;;;;4999028;28;20077;-63
2021/10/15 03:09:20;;;;;;;11.45;7.22;;;12.60;96.90;;;;;;5000301;28;20037;-63
2021/10/15 03:11:46;;;;;;;11.20;6.75;;;12.60;96.90;;;;;;4997566;28;20850;-63
2021/10/15 03:14:11;;;;;;;11.23;7.03;;;12.60;96.90;;;;;;4996318;28;20026;-63
2021/10/15 03:16:37;;;;;;;7.80;6.72;;;12.60;97.00;;;;;;4999419;28;20034;-63
2021/10/15 03:19:03;;;;;;;8.60;5.95;;;12.60;97.00;;;;;;5002787;28;20389;-63
2021/10/15 03:21:28;;;;;;;10.77;6.82;;;12.60;97.00;;;;;;4995476;28;20026;-63
2021/10/15 03:23:54;;;;;;;11.77;7.60;;;12.60;97.10;;;;;;4982850;28;20030;-63
2021/10/15 03:26:19;;;;;;;10.52;7.35;;;12.60;97.10;;;;;;4997974;28;20033;-63
2021/10/15 03:28:45;;;;;;;10.82;7.88;;;12.60;97.20;;;;;;4995520;28;20031;-63
2021/10/15 03:31:10;;;;;;;8.27;6.55;;;12.60;97.30;;;;;;4996261;28;20018;-63
2021/10/15 03:33:36;;;;;;;11.45;7.25;;;12.60;97.30;;;;;;4997707;28;20030;-63
2021/10/15 03:36:02;;;;;;;10.07;7.20;;;12.60;97.30;;;;;;4997664;28;20105;-63
2021/10/15 03:38:28;;;;;;;10.02;7.03;;;12.60;97.70;;;;;;4994124;28;20030;-63
2021/10/15 03:40:54;;;;;;;10.52;7.25;;;12.60;97.50;;;;;;4998804;28;20031;-63
2021/10/15 03:43:19;;;;;;;12.63;8.27;;;12.60;97.50;;;;;;4997733;28;20019;-63
2021/10/15 03:45:45;;;;;;;13.27;8.27;;;12.60;97.50;;;;;;4997579;28;20482;-63
2021/10/15 03:48:10;;;;;;;10.07;8.02;;;12.50;97.60;;;;;;4999224;28;20022;-63
2021/10/15 03:50:36;;;;;;;11.63;7.63;;;12.60;97.70;;;;;;4997288;28;20038;-63
2021/10/15 03:53:02;;;;;;;11.05;6.97;;;12.60;97.70;;;;;;5000343;28;20032;-63
2021/10/15 03:55:27;;;;;;;11.82;7.97;;;12.60;97.80;;;;;;4994435;28;20061;-63
2021/10/15 03:57:53;;;;;;;12.57;7.82;;;12.60;97.80;;;;;;4998206;28;20469;-64
2021/10/15 04:00:18;;;;;;;10.25;7.35;;;12.60;97.80;;;;;;4996430;28;20023;-63
2021/10/15 04:02:45;;;;;;;11.93;8.02;;;12.60;97.80;;;;;;5000688;28;20022;-63
2021/10/15 04:05:12;;;;;;;8.88;6.93;;;12.60;97.80;;;;;;4998799;28;20026;-63
2021/10/15 04:07:38;;;;;;;11.63;7.75;;;12.60;97.80;;;;;;4999482;28;20026;-63
2021/10/15 04:10:05;;;;;;;9.13;6.85;;;12.70;97.80;;;;;;4999563;28;20517;-63
2021/10/15 04:12:30;;;;;;;10.55;7.57;;;12.70;98.10;;;;;;4993631;28;20027;-62
2021/10/15 04:14:56;;;;;;;10.27;7.63;;;12.70;97.80;;;;;;4981122;28;20033;-63
2021/10/15 04:17:21;;;;;;;10.70;7.18;;;12.70;97.80;;;;;;4996812;28;20018;-62
2021/10/15 04:19:47;;;;;;;10.68;7.28;;;12.70;97.80;;;;;;4994616;28;20018;-63
2021/10/15 04:22:12;;;;;;;9.98;8.02;;;12.70;97.80;;;;;;4995531;28;20019;-63
2021/10/15 04:24:38;;;;;;;8.63;7.28;;;12.70;97.80;;;;;;4996360;28;20021;-63
2021/10/15 04:27:05;;;;;;;10.55;6.90;;;12.70;97.90;;;;;;4996516;28;20023;-63
2021/10/15 04:29:31;;;;;;;9.55;7.20;;;12.70;97.90;;;;;;4999759;28;20472;-63
2021/10/15 04:31:56;;;;;;;8.70;7.07;;;12.70;97.90;;;;;;4994027;28;20105;-63
2021/10/15 04:34:22;;;;;;;9.45;7.10;;;12.70;97.90;;;;;;4994518;28;20089;-63
2021/10/15 04:36:48;;;;;;;12.15;7.82;;;12.80;98.00;;;;;;4995955;28;20097;-63
2021/10/15 04:39:14;;;;;;;11.18;8.15;;;12.80;98.00;;;;;;4995210;28;20061;-63
2021/10/15 04:41:39;;;;;;;10.65;7.55;;;12.80;98.10;;;;;;4997205;28;20065;-63
2021/10/15 04:44:05;;;;;;;10.45;7.88;;;12.80;98.10;;;;;;4991292;28;20041;-63
2021/10/15 04:46:31;;;;;;;10.80;7.63;;;12.80;98.10;;;;;;4998500;28;20022;-63
2021/10/15 04:48:56;;;;;;;10.05;8.38;;;12.80;98.10;;;;;;4995136;28;20121;-63
2021/10/15 04:51:22;;;;;;;11.98;8.52;;;12.90;98.20;;;;;;4997329;28;20030;-62
2021/10/15 04:53:48;;;;;;;13.13;7.95;;;12.90;98.30;;;;;;4996518;28;20029;-63
2021/10/15 04:56:14;;;;;;;10.68;7.82;;;12.90;98.30;;;;;;4975496;28;20068;-63
2021/10/15 04:58:39;;;;;;;12.40;8.13;;;12.90;98.40;;;;;;4997068;28;20050;-63
2021/10/15 05:01:05;;;;;;;12.85;8.82;;;12.90;98.40;;;;;;4997272;28;20118;-63
2021/10/15 05:03:30;;;;;;;11.75;7.88;;;12.90;98.40;;;;;;4990558;28;20030;-63
2021/10/15 05:05:56;;;;;;;12.25;7.45;;;12.90;98.40;;;;;;4993596;28;20032;-63
2021/10/15 05:08:22;;;;;;;11.65;8.73;;;12.90;98.40;;;;;;4996462;28;20052;-63
2021/10/15 05:10:48;;;;;;;10.55;7.97;;;12.90;98.40;;;;;;4992358;28;20021;-63
2021/10/15 05:13:17;;;;;;;13.65;9.23;;;12.90;98.40;;;;;;4997994;28;20026;-63
2021/10/15 05:15:44;;;;;;;14.38;8.85;;;12.90;98.40;;;;;;5000649;28;20018;-63
2021/10/15 05:18:14;;;;;;;11.15;8.88;;;12.90;98.40;;;;;;4994906;28;20034;-63
2021/10/15 05:20:41;;;;;;;11.40;8.40;;;12.90;98.40;;;;;;4980671;28;20018;-63
2021/10/15 05:23:07;;;;;;;11.43;7.82;;;12.90;98.40;;;;;;4995187;28;20014;-62
2021/10/15 05:25:33;;;;;;;11.73;8.63;;;12.90;98.40;;;;;;4997412;28;20033;-63
2021/10/15 05:27:59;;;;;;;10.68;8.88;;;12.90;98.40;;;;;;4994719;28;20053;-63
2021/10/15 05:30:26;;;;;;;12.40;8.80;;;12.90;98.50;;;;;;4990500;28;20131;-63
2021/10/15 05:32:52;;;;;;;13.65;8.75;;;12.90;98.50;;;;;;4993949;28;20024;-63
2021/10/15 05:35:18;;;;;;;11.27;8.10;;;12.90;98.50;;;;;;4992711;28;20034;-63
2021/10/15 05:37:44;;;;;;;12.18;9.48;;;12.90;98.50;;;;;;4992461;28;20493;-63
2021/10/15 05:40:10;;;;;;;12.77;9.02;;;12.90;98.50;;;;;;4991802;28;20489;-63
2021/10/15 05:42:35;;;;;;;12.23;9.18;;;12.90;98.60;;;;;;4988292;28;20029;-63
2021/10/15 05:45:01;;;;;;;13.40;9.20;;;12.90;98.60;;;;;;4997012;28;20018;-63
2021/10/15 05:47:27;;;;;;;12.60;8.73;;;12.90;98.60;;;;;;4994326;28;20026;-62
2021/10/15 05:49:52;;;;;;;15.23;9.95;;;13.00;98.70;;;;;;4990016;28;20050;-63
2021/10/15 05:52:28;;;;;;;13.90;8.77;;;13.00;98.70;;;;;;4995392;28;20390;-63
2021/10/15 05:55:04;;;;;;;15.00;10.20;;;13.00;98.70;;;;;;4993890;28;20390;-63
2021/10/15 06:00:07;;;;;;;14.55;9.05;;;13.00;98.80;;;;;;4998075;28;20033;-63
2021/10/15 06:02:35;;;;;;;12.60;9.73;;;12.90;98.80;;;;;;4993662;28;20022;-63
2021/10/15 06:15:59;;;;;;;12.88;9.95;;;13.00;99.00;;;;;;4993492;28;20037;-62
2021/10/15 06:18:25;;;;;;;13.05;9.43;;;13.00;99.10;;;;;;5006869;28;20121;-63
2021/10/15 06:20:51;;;;;;;15.90;10.35;;;13.00;99.10;;;;;;5011816;28;20141;-63
2021/10/15 06:23:18;;;;;;;13.05;9.02;;;13.00;99.10;;;;;;5011320;28;20057;-63
2021/10/15 06:25:44;;;;;;;15.60;9.32;;;13.00;99.10;;;;;;5005412;28;20736;-63
2021/10/15 06:28:13;;;;;;;13.52;10.60;;;13.00;99.20;;;;;;4991650;28;20480;-62
2021/10/15 06:30:39;;;;;;;13.95;9.75;;;13.00;99.20;;;;;;5001498;28;20022;-63
2021/10/15 06:33:05;;;;;;;14.43;9.40;;;13.00;99.20;;;;;;5015751;28;20489;-63
2021/10/15 06:35:31;;;;;;;11.65;9.60;;;13.00;99.20;;;;;;5015081;28;20088;-63
2021/10/15 06:37:57;;;;;;;15.77;11.32;;;13.00;99.20;;;;;;5015526;28;20140;-62
2021/10/15 06:40:22;;;;;;;13.80;9.93;;;13.10;99.30;;;;;;5014801;28;20080;-63
2021/10/15 06:42:48;;;;;;;15.20;11.10;;;13.00;99.30;;;;;;5012701;28;20017;-63
2021/10/15 06:45:14;;;;;;;15.90;10.60;;;13.10;99.40;;;;;;5001234;28;20032;-63
2021/10/15 06:47:40;;;;;;;13.90;10.15;;;13.10;99.50;;;;;;5002988;28;20027;-63
2021/10/15 06:50:06;;;;;;;18.00;11.02;;;13.00;99.50;;;;;;5007313;28;20026;-62
2021/10/15 06:52:36;;;;;;;16.52;11.25;;;13.10;99.50;;;;;;5006079;28;20057;-63
2021/10/15 06:55:06;;;;;;;14.73;9.50;;;13.10;99.50;;;;;;5015436;28;20116;-63
2021/10/15 06:57:32;;;;;;;12.20;9.95;;;13.10;99.60;;;;;;5011952;28;20033;-63
2021/10/15 06:59:58;;;;;;;14.50;10.07;;;13.10;99.60;;;;;;5011445;28;20064;-63
2021/10/15 07:02:24;;;;;;;12.13;10.23;;;13.10;99.70;;;;;;5012864;28;20410;-63
2021/10/15 07:04:49;;;;;;;14.75;10.70;;;13.10;99.80;;;;;;5004508;28;20029;-63
2021/10/15 07:07:15;;;;;;;19.00;11.40;;;13.10;99.90;;;;;;5005493;28;20041;-63
2021/10/15 07:09:41;;;;;;;17.67;11.07;;;13.10;99.90;;;;;;4993594;28;20025;-63
2021/10/15 07:12:07;;;;;;;18.00;12.77;;;13.10;99.90;;;;;;5013952;28;20022;-63
2021/10/15 07:14:32;;;;;;;20.25;13.20;;;13.10;99.90;;;;;;5006677;28;20044;-63
2021/10/15 07:16:58;;;;;;;16.85;11.18;;;13.10;99.90;;;;;;5012995;28;20133;-64
2021/10/15 07:19:23;;;;;;;16.48;12.07;;;13.10;99.90;;;;;;4993601;28;20030;-64
2021/10/15 07:21:50;;;;;;;12.65;10.93;;;13.10;99.90;;;;;;4984684;28;20034;-64
2021/10/15 07:24:15;;;;;;;14.63;9.93;;;13.10;99.90;;;;;;5001634;28;20479;-64
2021/10/15 07:26:41;;;;;;;12.60;9.32;;;13.10;99.90;;;;;;5010577;28;20037;-64
2021/10/15 07:29:06;;;;;;;8.35;6.32;;;13.10;99.90;;;;;;5010718;28;20030;-64
2021/10/15 07:31:33;;;;;;;5.65;4.88;;;13.10;99.90;;;;;;5004804;28;20093;-63
2021/10/15 07:33:58;;;;;;;5.20;3.50;;;13.20;99.90;;;;;;4991263;28;20029;-64
2021/10/15 07:36:24;;;;;;;4.03;2.38;;;13.20;99.90;;;;;;5013254;28;20034;-64
2021/10/15 07:38:50;;;;;;;2.85;1.55;;;13.20;99.90;;;;;;5013203;28;20470;-64
2021/10/15 07:41:17;;;;;;;2.08;0.90;;;13.20;99.90;;;;;;5013146;28;20363;-63
2021/10/15 07:43:43;;;;;;;0.77;0.50;;;13.20;99.90;;;;;;5010601;28;20110;-64
2021/10/15 07:46:09;;;;;;;1.08;0.40;;;13.20;99.90;;;;;;4995627;28;20104;-64
2021/10/15 07:48:34;;;;;;;1.55;0.30;;;13.20;99.90;;;;;;5007692;28;20038;-64
2021/10/15 07:51:00;;;;;;;1.25;0.63;;;13.10;99.90;;;;;;5010007;28;20054;-64
2021/10/15 07:53:25;;;;;;;0.82;0.20;;;13.10;99.90;;;;;;5009301;28;20062;-64
2021/10/15 07:55:51;;;;;;;1.85;0.50;;;13.10;99.90;;;;;;5003721;28;20077;-64
2021/10/15 07:58:17;;;;;;;0.88;0.20;;;13.10;99.90;;;;;;5011532;28;20053;-64
2021/10/15 08:00:42;;;;;;;1.13;0.20;;;13.00;99.90;;;;;;5002145;28;20465;-64
2021/10/15 08:03:08;;;;;;;0.90;0.15;;;13.00;99.90;;;;;;5000612;28;20061;-64
2021/10/15 08:05:34;;;;;;;2.08;0.25;;;13.00;99.90;;;;;;5012086;28;20040;-64
2021/10/15 08:07:59;;;;;;;1.08;0.10;;;13.00;99.90;;;;;;4985329;28;20438;-64
2021/10/15 08:10:25;;;;;;;0.68;0.15;;;13.00;99.80;;;;;;4997262;28;20026;-64
2021/10/15 08:12:50;;;;;;;1.05;0.20;;;13.00;99.80;;;;;;4993016;28;20077;-64
2021/10/15 08:15:18;;;;;;;1.48;0.10;;;13.00;99.70;;;;;;5002631;28;20045;-64
2021/10/15 08:17:45;;;;;;;2.05;0.15;;;13.00;99.60;;;;;;5012591;28;20104;-63
2021/10/15 08:20:13;;;;;;;1.00;0.20;;;13.10;99.50;;;;;;5010435;28;20061;-64
2021/10/15 08:22:39;;;;;;;1.67;0.20;;;13.10;99.40;;;;;;4991436;28;20018;-64
2021/10/15 08:25:06;;;;;;;0.73;0.20;;;13.10;99.40;;;;;;5011986;28;20025;-64
2021/10/15 08:27:31;;;;;;;0.25;0.20;;;13.10;99.30;;;;;;5012545;28;20397;-64
2021/10/15 08:29:57;;;;;;;0.70;0.20;;;13.10;99.30;;;;;;5012946;28;20482;-64
2021/10/15 08:32:22;;;;;;;0.88;0.20;;;13.10;99.20;;;;;;4994103;28;20034;-64
2021/10/15 08:34:48;;;;;;;0.68;0.20;;;13.10;99.10;;;;;;4993092;28;20046;-64
2021/10/15 08:37:13;;;;;;;1.90;0.20;;;13.20;99.00;;;;;;5006511;28;20045;-64
2021/10/15 08:39:39;;;;;;;1.20;0.68;;;13.20;99.00;;;;;;5012596;28;20417;-64
2021/10/15 08:42:05;;;;;;;2.60;0.20;;;13.20;98.90;;;;;;5012918;28;20140;-64
2021/10/15 08:44:40;;;;;;;2.05;0.30;;;13.30;98.90;;;;;;5003773;28;20037;-64
2021/10/15 08:47:06;;;;;;;3.53;0.40;;;13.30;98.80;;;;;;4995532;28;20029;-64
2021/10/15 08:49:32;;;;;;;1.17;0.35;;;13.30;98.80;;;;;;4995721;28;20034;-64
2021/10/15 08:51:58;;;;;;;1.45;0.15;;;13.40;98.60;;;;;;5012289;28;20096;-64
2021/10/15 08:54:23;;;;;;;0.60;0.20;;;13.40;98.50;;;;;;5012892;28;20057;-64
2021/10/15 08:56:49;;;;;;;1.23;0.30;;;13.40;98.50;;;;;;5000996;28;20444;-64
2021/10/15 08:59:22;;;;;;;0.85;0.13;;;13.40;98.50;;;;;;5006669;28;20075;-64
2021/10/15 09:01:49;;;;;;;2.47;0.10;;;13.50;98.50;;;;;;5004575;28;20379;-64
2021/10/15 09:04:18;;;;;;;1.95;0.20;;;13.50;98.40;;;;;;4990386;28;20026;-64
2021/10/15 09:06:49;;;;;;;1.75;0.40;;;13.60;98.30;;;;;;5007797;28;20088;-64
2021/10/15 09:09:26;;;;;;;1.08;0.20;;;13.70;98.20;;;;;;5008128;28;20026;-64
2021/10/15 09:11:51;;;;;;;1.70;0.30;;;13.70;98.10;;;;;;4993981;28;20060;-64
2021/10/15 09:14:18;;;;;;;2.63;0.40;;;13.70;98.00;;;;;;5004874;28;20061;-64
2021/10/15 09:17:09;;;;;;;2.00;0.30;;;13.70;98.00;;;;;;5010870;28;20032;-64
2021/10/15 09:19:40;;;;;;;1.85;0.40;;;13.80;97.80;;;;;;5008048;28;20030;-64
2021/10/15 09:22:15;;;;;;;2.08;0.40;;;13.80;97.90;;;;;;5010436;28;20021;-64
2021/10/15 09:24:56;;;;;;;1.75;0.30;;;13.90;97.90;;;;;;5011375;28;20086;-64
2021/10/15 09:27:22;;;;;;;2.35;0.50;;;13.90;97.80;;;;;;5004255;28;20022;-64
2021/10/15 09:29:49;;;;;;;2.10;0.40;;;13.90;97.70;;;;;;4992752;28;20080;-64
2021/10/15 09:32:15;;;;;;;2.15;0.35;;;14.00;97.60;;;;;;4999264;28;20028;-64
2021/10/15 09:34:42;;;;;;;0.50;0.30;;;14.10;97.60;;;;;;4999983;28;20117;-64
2021/10/15 09:37:20;;;;;;;4.47;0.40;;;14.30;97.60;;;;;;4982755;28;20022;-65
2021/10/15 09:39:47;;;;;;;3.40;0.30;;;14.70;97.30;;;;;;4990844;28;20465;-64
2021/10/15 09:42:27;;;;;;;2.80;0.40;;;14.80;97.10;;;;;;4986839;28;20042;-64
2021/10/15 09:44:54;;;;;;;2.55;0.35;;;15.10;96.70;;;;;;4993208;28;20029;-64
2021/10/15 09:47:28;;;;;;;2.50;0.38;;;15.20;96.50;;;;;;5010693;28;20022;-64
2021/10/15 09:50:05;;;;;;;3.05;0.30;;;15.50;96.40;;;;;;4994482;28;20536;-64
2021/10/15 09:52:35;;;;;;;0.95;0.40;;;15.80;96.10;;;;;;4994597;28;20033;-64
2021/10/15 09:55:08;;;;;;;1.88;0.30;;;15.90;95.80;;;;;;5012499;28;20098;-64
2021/10/15 09:57:37;;;;;;;2.13;0.45;;;16.10;95.70;;;;;;5013966;28;20037;-65
2021/10/15 10:00:07;;;;;;;3.17;0.50;;;16.20;95.60;;;;;;5004996;28;20019;-64
2021/10/15 10:02:33;;;;;;;1.75;0.32;;;16.30;95.20;;;;;;5014010;28;20054;-64
2021/10/15 10:04:59;;;;;;;2.50;0.32;;;16.40;95.00;;;;;;5006458;28;20089;-64
2021/10/15 10:07:25;;;;;;;2.97;0.40;;;16.60;94.90;;;;;;5012318;28;20060;-64
2021/10/15 10:09:50;;;;;;;2.75;0.43;;;16.90;94.60;;;;;;5008311;28;20019;-65
2021/10/15 10:12:17;;;;;;;1.60;0.35;;;17.30;94.30;;;;;;5009567;28;20025;-64
2021/10/15 10:14:42;;;;;;;3.15;0.35;;;18.00;94.20;;;;;;4996672;28;20390;-65
2021/10/15 10:17:10;;;;;;;2.20;0.40;;;20.40;92.90;;;;;;4990463;28;20018;-65
2021/10/15 10:19:45;;;;;;;3.03;0.40;;;23.60;89.10;;;;;;5001903;28;20022;-65
2021/10/15 10:22:11;;;;;;;2.38;0.40;;;26.70;80.30;;;;;;5015212;28;20022;-65
2021/10/15 10:24:45;;;;;;;3.10;0.45;;;28.40;74.60;;;;;;5015828;28;20496;-65
2021/10/15 10:27:10;;;;;;;0.88;0.35;;;29.80;67.00;;;;;;4996694;28;20030;-65
2021/10/15 10:29:44;;;;;;;3.03;0.68;;;29.80;65.20;;;;;;5007530;28;20029;-66
2021/10/15 10:32:17;;;;;;;2.00;0.57;;;28.20;63.50;;;;;;5010964;28;20025;-66
2021/10/15 10:34:42;;;;;;;1.50;0.50;;;27.00;64.60;;;;;;4996237;28;20034;-65
2021/10/15 10:37:10;;;;;;;3.20;0.60;;;28.80;64.50;;;;;;5009733;28;20532;-65
2021/10/15 10:39:37;;;;;;;2.10;0.60;;;31.50;60.30;;;;;;4995710;28;20026;-65
2021/10/15 10:42:03;;;;;;;2.20;0.50;;;33.90;56.40;;;;;;5008727;28;20021;-65
2021/10/15 10:44:49;;;;;;;2.13;0.70;;;35.90;53.10;;;;;;4998873;28;20022;-66
2021/10/15 10:47:19;;;;;;;1.52;0.47;;;36.10;50.60;;;;;;5009687;28;20029;-66
2021/10/15 10:50:06;;;;;;;1.58;0.50;;;36.80;49.70;;;;;;4987759;28;20551;-66
2021/10/15 10:52:34;;;;;;;2.35;0.60;;;36.30;48.10;;;;;;5000372;28;20539;-66
2021/10/15 10:54:59;;;;;;;2.17;0.77;;;36.90;47.60;;;;;;5005148;28;20072;-66
2021/10/15 10:57:45;;;;;;;3.80;0.60;;;36.80;46.30;;;;;;4978312;28;20390;-66
2021/10/15 11:00:36;;;;;;;2.60;0.63;;;35.30;45.60;;;;;;4995330;28;20042;-66
2021/10/15 11:03:03;;;;;;;2.47;0.80;;;33.30;47.00;;;;;;5000447;28;20482;-66
2021/10/15 11:05:34;;;;;;;1.58;0.85;;;34.80;46.20;;;;;;5015056;28;20014;-66
2021/10/15 11:08:25;;;;;;;2.42;0.63;;;36.90;42.70;;;;;;5012272;28;20081;-66
2021/10/15 11:11:34;;;;;;;2.40;0.70;;;39.30;40.90;;;;;;5014256;28;20030;-66
2021/10/15 11:13:59;;;;;;;2.08;0.70;;;41.20;39.00;;;;;;5006786;28;20069;-66
2021/10/15 11:16:26;;;;;;;2.13;0.80;;;42.60;37.70;;;;;;5014374;28;20061;-66
2021/10/15 11:18:53;;;;;;;5.13;1.00;;;42.00;36.20;;;;;;5007663;28;20038;-66
2021/10/15 11:21:21;;;;;;;2.20;1.00;;;41.00;36.10;;;;;;4994335;28;20044;-66
2021/10/15 11:23:48;;;;;;;3.00;0.70;;;40.00;35.10;;;;;;5002138;28;20014;-66
2021/10/15 11:26:14;;;;;;;2.03;0.73;;;38.70;36.70;;;;;;5012391;28;20030;-66
2021/10/15 11:28:40;;;;;;;2.17;0.70;;;39.10;36.40;;;;;;5013489;28;20109;-66
2021/10/15 11:31:12;;;;;;;2.13;0.60;;;39.70;35.60;;;;;;5005968;28;20499;-66
2021/10/15 11:33:39;;;;;;;1.75;0.65;;;40.70;34.90;;;;;;5006518;28;20064;-66
2021/10/15 11:36:06;;;;;;;3.80;0.80;;;41.50;33.90;;;;;;5012490;28;20521;-66
2021/10/15 11:38:32;;;;;;;3.40;0.70;;;42.20;33.60;;;;;;5011171;28;20068;-66
2021/10/15 11:41:06;;;;;;;2.97;0.85;;;42.60;32.80;;;;;;5010381;28;20009;-66
2021/10/15 11:43:34;;;;;;;4.53;0.98;;;40.90;31.60;;;;;;4995596;28;20398;-66
2021/10/15 11:46:10;;;;;;;;;;;38.60;33.30;;;;;;5013568;28;20047;-66
2021/10/15 11:48:41;;;;;;;1.80;0.63;;;37.40;35.10;;;;;;5013072;28;19975;-66
2021/10/15 11:51:18;;;;;;;1.92;0.70;;;37.80;34.70;;;;;;5013384;28;20037;-66
2021/10/15 11:53:49;;;;;;;2.70;0.80;;;39.00;34.00;;;;;;4994637;28;20026;-67
2021/10/15 11:56:20;;;;;;;2.10;0.63;;;39.80;33.10;;;;;;4995133;28;20109;-67
2021/10/15 11:58:50;;;;;;;2.60;0.70;;;40.70;32.60;;;;;;4994651;28;20038;-66
2021/10/15 12:01:33;;;;;;;2.85;0.50;;;41.50;32.20;;;;;;5008038;28;20033;-66
2021/10/15 12:03:59;;;;;;;3.20;0.70;;;42.20;32.10;;;;;;4993500;28;20057;-66
2021/10/15 12:06:39;;;;;;;3.30;0.70;;;42.80;31.90;;;;;;5009733;28;20104;-66
2021/10/15 12:09:16;;;;;;;1.60;0.80;;;43.30;31.50;;;;;;5006881;28;20360;-66
2021/10/15 12:11:46;;;;;;;2.00;0.83;;;42.90;31.20;;;;;;5006708;28;20022;-66
2021/10/15 12:14:22;;;;;;;3.40;0.90;;;42.50;31.70;;;;;;4994453;28;20019;-66
2021/10/15 12:17:03;;;;;;;2.22;0.57;;;42.70;30.90;;;;;;5002760;28;20033;-66
2021/10/15 12:19:40;;;;;;;2.33;0.80;;;41.90;30.60;;;;;;4996802;28;20019;-66
2021/10/15 12:22:12;;;;;;;1.63;0.75;;;40.00;31.50;;;;;;5006920;28;20022;-66
2021/10/15 12:24:43;;;;;;;1.98;0.68;;;38.00;32.20;;;;;;4993735;28;20430;-66
2021/10/15 12:27:21;;;;;;;3.67;0.60;;;36.30;33.00;;;;;;5011876;28;20390;-66
2021/10/15 12:29:48;;;;;;;;;;;34.90;34.10;;;;;;5013276;28;20018;-66
2021/10/15 12:32:28;;;;;;;2.55;0.70;;;34.20;35.30;;;;;;5012142;28;19917;-66
2021/10/15 12:34:58;;;;;;;2.22;0.70;;;33.90;35.00;;;;;;5013787;28;20038;-66
2021/10/15 12:37:31;;;;;;;2.80;0.70;;;33.90;35.00;;;;;;4998682;28;20075;-66
2021/10/15 12:40:15;;;;;;;2.53;0.88;;;35.20;34.40;;;;;;5004534;28;20072;-66
2021/10/15 12:42:42;;;;;;;1.90;0.68;;;36.40;32.40;;;;;;4996887;28;20431;-66
2021/10/15 12:45:14;;;;;;;1.95;0.70;;;37.00;32.30;;;;;;5002235;28;20081;-66
2021/10/15 12:48:04;;;;;;;3.03;0.80;;;38.00;32.00;;;;;;4993283;28;20026;-66
2021/10/15 12:50:32;;;;;;;2.88;0.80;;;38.90;31.70;;;;;;5012881;28;20087;-66
2021/10/15 12:53:09;;;;;;;1.90;0.70;;;39.70;31.50;;;;;;4999289;28;20049;-66
2021/10/15 12:55:34;;;;;;;2.22;0.75;;;40.20;31.00;;;;;;5000255;28;20034;-66
2021/10/15 12:58:05;;;;;;;3.72;1.17;;;40.50;30.90;;;;;;5006410;28;20379;-66
2021/10/15 13:00:31;;;;;;;4.85;1.75;;;40.80;30.40;;;;;;5005256;28;20037;-66